createdAt,value
2023-03-14T01:23:26.099Z,1265.00
2023-03-14T01:24:26.109Z,1285.00
2023-03-14T01:25:26.083Z,1241.00
2023-03-14T01:26:26.117Z,1255.00
2023-03-14T01:27:26.143Z,1255.00
2023-03-14T01:28:26.110Z,1241.00
2023-03-14T01:29:26.119Z,1249.00
2023-03-14T01:30:26.127Z,1250.00
2023-03-14T01:31:26.163Z,1265.00
2023-03-14T01:32:26.128Z,1266.00
2023-03-14T01:33:26.113Z,1228.00
2023-03-14T01:34:26.104Z,1229.00
2023-03-14T01:35:26.089Z,1258.00
2023-03-14T01:36:26.096Z,1233.00
2023-03-14T01:37:26.087Z,1243.00
2023-03-14T01:38:26.098Z,1221.00
2023-03-14T01:39:26.117Z,1235.00
2023-03-14T01:40:26.135Z,1234.00
2023-03-14T01:41:26.166Z,1237.00
2023-03-14T01:42:26.147Z,1254.00
2023-03-14T01:43:26.201Z,1220.00
2023-03-14T01:44:26.179Z,1222.00
2023-03-14T01:45:26.289Z,1218.00
2023-03-14T01:46:26.287Z,1234.00
2023-03-14T01:47:26.261Z,1225.00
2023-03-14T01:48:26.290Z,1228.00
2023-03-14T01:49:26.300Z,1228.00
2023-03-14T01:50:26.330Z,1222.00
2023-03-14T01:51:26.359Z,1248.00
2023-03-14T01:52:26.360Z,1212.00
2023-03-14T01:53:26.371Z,1228.00
2023-03-14T01:54:26.414Z,1214.00
2023-03-14T01:55:26.413Z,1214.00
2023-03-14T01:56:26.395Z,1209.00
2023-03-14T01:57:26.414Z,1198.00
2023-03-14T01:58:26.442Z,1209.00
2023-03-14T01:59:26.470Z,1201.00
2023-03-14T02:00:26.504Z,1210.00
2023-03-14T02:01:26.595Z,1192.00
2023-03-14T02:02:26.525Z,1199.00
2023-03-14T02:03:26.579Z,1226.00
2023-03-14T02:04:26.563Z,1205.00
2023-03-14T02:05:26.563Z,1197.00
2023-03-14T02:07:26.599Z,1207.00
2023-03-14T02:08:26.613Z,1190.00
2023-03-14T02:09:26.638Z,1191.00
2023-03-14T02:10:26.643Z,1207.00
2023-03-14T02:11:26.634Z,1195.00
2023-03-14T02:12:26.637Z,1215.00
2023-03-14T02:13:26.652Z,1208.00
2023-03-14T02:14:26.660Z,1186.00
2023-03-14T02:15:26.751Z,1191.00
2023-03-14T02:16:26.690Z,1196.00
2023-03-14T02:17:26.664Z,1190.00
2023-03-14T02:18:26.726Z,1188.00
2023-03-14T02:19:26.647Z,1204.00
2023-03-14T02:20:26.664Z,1194.00
2023-03-14T02:21:26.654Z,1196.00
2023-03-14T02:22:26.666Z,1174.00
2023-03-14T02:23:26.680Z,1167.00
2023-03-14T02:24:26.702Z,1168.00
2023-03-14T02:25:26.697Z,1200.00
2023-03-14T02:26:26.702Z,1182.00
2023-03-14T02:27:26.712Z,1174.00
2023-03-14T02:28:26.738Z,1174.00
2023-03-14T02:29:26.768Z,1167.00
2023-03-14T02:31:26.831Z,1173.00
2023-03-14T02:32:26.841Z,1185.00
2023-03-14T02:33:26.857Z,1169.00
2023-03-14T05:13:30.558Z,977.00
2023-03-14T05:14:30.621Z,980.00
2023-03-14T05:15:30.684Z,983.00
2023-03-14T05:16:30.783Z,975.00
2023-03-14T05:17:30.786Z,980.00
2023-03-14T05:18:30.848Z,976.00
2023-03-14T05:19:30.918Z,962.00
2023-03-14T05:20:30.958Z,967.00
2023-03-14T05:21:31.016Z,978.00
2023-03-14T05:22:31.079Z,966.00
2023-03-14T05:23:31.133Z,960.00
2023-03-14T05:24:31.185Z,968.00
2023-03-14T05:25:32.681Z,954.00
2023-03-14T05:26:31.294Z,956.00
2023-03-14T05:27:31.340Z,956.00
2023-03-14T05:28:31.407Z,961.00
2023-03-14T05:29:31.467Z,961.00
2023-03-14T05:30:31.520Z,964.00
2023-03-14T05:31:31.663Z,947.00
2023-03-14T05:32:31.668Z,966.00
2023-03-14T05:33:31.692Z,954.00
2023-03-14T05:34:31.749Z,955.00
2023-03-14T05:35:31.843Z,954.00
2023-03-14T05:36:31.875Z,951.00
2023-03-14T05:37:31.937Z,936.00
2023-03-14T05:38:31.975Z,955.00
2023-03-14T05:39:32.028Z,951.00
2023-03-14T05:40:32.087Z,963.00
2023-03-14T05:41:32.140Z,946.00
2023-03-14T05:42:32.191Z,937.00
2023-03-14T05:43:32.243Z,936.00
2023-03-14T05:44:32.313Z,949.00
2023-03-14T05:45:34.500Z,940.00
2023-03-14T05:46:32.342Z,939.00
2023-03-14T05:47:32.338Z,951.00
2023-03-14T05:48:32.322Z,950.00
2023-03-14T05:49:32.307Z,936.00
2023-03-14T05:50:32.294Z,943.00
2023-03-14T05:51:32.286Z,928.00
2023-03-14T05:52:32.274Z,944.00
2023-03-14T05:53:32.269Z,935.00
2023-03-14T05:54:32.258Z,930.00
2023-03-14T05:55:32.263Z,928.00
2023-03-14T05:56:32.228Z,932.00
2023-03-14T05:57:32.228Z,928.00
2023-03-14T05:58:32.222Z,931.00
2023-03-14T05:59:32.200Z,928.00
2023-03-14T06:00:32.183Z,928.00
2023-03-14T06:01:32.180Z,930.00
2023-03-14T06:02:32.198Z,922.00
2023-03-14T06:03:32.204Z,916.00
2023-03-14T06:04:32.141Z,928.00
2023-03-14T06:05:32.209Z,911.00
2023-03-14T06:06:32.125Z,922.00
2023-03-14T06:07:32.113Z,913.00
2023-03-14T06:08:32.116Z,924.00
2023-03-14T06:09:32.097Z,922.00
2023-03-14T06:10:32.087Z,921.00
2023-03-14T06:11:32.087Z,913.00
2023-03-14T06:12:32.081Z,908.00
2023-03-14T06:13:32.068Z,913.00
2023-03-14T06:14:32.065Z,918.00
2023-03-14T06:15:32.045Z,912.00
2023-03-14T06:16:32.072Z,912.00
2023-03-14T06:17:32.032Z,912.00
2023-03-14T06:18:32.024Z,894.00
2023-03-14T06:19:32.014Z,909.00
2023-03-14T06:20:32.018Z,911.00
2023-03-14T06:21:31.996Z,893.00
2023-03-14T06:22:31.986Z,891.00
2023-03-14T06:23:31.960Z,871.00
2023-03-14T06:24:31.976Z,857.00
2023-03-14T06:25:31.956Z,842.00
2023-03-14T06:26:32.006Z,853.00
2023-03-14T06:27:32.051Z,839.00
2023-03-14T06:28:32.120Z,852.00
2023-03-14T06:29:32.155Z,834.00
2023-03-14T06:30:32.256Z,863.00
2023-03-14T06:31:32.348Z,887.00
2023-03-14T06:32:32.378Z,1000.00
2023-03-14T06:33:32.349Z,973.00
2023-03-14T06:34:32.385Z,1003.00
2023-03-14T06:36:32.436Z,1049.00
2023-03-14T06:37:32.461Z,1064.00
2023-03-14T06:38:32.500Z,1094.00
2023-03-14T06:39:32.526Z,1141.00
2023-03-14T06:40:32.533Z,1202.00
2023-03-14T06:41:32.566Z,1283.00
2023-03-14T06:42:32.610Z,1312.00
2023-03-14T06:43:32.574Z,1349.00
2023-03-14T06:44:32.601Z,1420.00
2023-03-14T06:45:32.605Z,1436.00
2023-03-14T06:46:32.677Z,1493.00
2023-03-14T06:47:32.618Z,1548.00
2023-03-14T06:48:32.617Z,1630.00
2023-03-14T06:49:32.615Z,1679.00
2023-03-14T06:50:32.609Z,1729.00
2023-03-14T06:51:32.618Z,1754.00
2023-03-14T06:52:32.718Z,1797.00
2023-03-14T06:53:32.590Z,1867.00
2023-03-14T06:54:32.561Z,1869.00
2023-03-14T06:55:32.563Z,1887.00
2023-03-14T06:56:32.512Z,1686.00
2023-03-14T06:57:32.481Z,1408.00
2023-03-14T06:58:32.477Z,1275.00
2023-03-14T06:59:32.460Z,1189.00
2023-03-14T07:00:32.491Z,1312.00
2023-03-14T07:01:33.403Z,1469.00
2023-03-14T07:02:42.324Z,1625.00
2023-03-14T07:03:33.457Z,1628.00
2023-03-14T07:04:32.530Z,1635.00
2023-03-14T07:05:32.454Z,1483.00
2023-03-14T07:06:32.438Z,1292.00
2023-03-14T07:07:32.451Z,1504.00
2023-03-14T07:08:32.442Z,1582.00
2023-03-14T07:09:32.431Z,1589.00
2023-03-14T07:10:32.414Z,1593.00
2023-03-14T07:11:32.419Z,1639.00
2023-03-14T07:12:32.471Z,1664.00
2023-03-14T07:13:32.494Z,1706.00
2023-03-14T07:14:32.512Z,1719.00
2023-03-14T07:15:32.585Z,1765.00
2023-03-14T07:16:32.543Z,1798.00
2023-03-14T07:17:32.554Z,1801.00
2023-03-14T07:18:32.546Z,1848.00
2023-03-14T07:19:32.525Z,1850.00
2023-03-14T07:20:32.495Z,1862.00
2023-03-14T07:21:32.477Z,1897.00
2023-03-14T07:22:32.465Z,1948.00
2023-03-14T07:23:32.444Z,2041.00
2023-03-14T07:24:32.417Z,2064.00
2023-03-14T07:25:32.402Z,2088.00
2023-03-14T07:26:32.406Z,2126.00
2023-03-14T07:27:32.381Z,1763.00
2023-03-14T07:28:32.350Z,1372.00
2023-03-14T07:29:32.360Z,1109.00
2023-03-14T07:30:32.364Z,1051.00
2023-03-14T07:31:32.402Z,1197.00
2023-03-14T07:32:32.397Z,1309.00
2023-03-14T07:33:32.390Z,1312.00
2023-03-14T07:34:32.390Z,1339.00
2023-03-14T07:35:33.382Z,1404.00
2023-03-14T07:36:32.388Z,1516.00
2023-03-14T07:37:32.422Z,1672.00
2023-03-14T07:38:32.387Z,1732.00
2023-03-14T07:39:32.390Z,1752.00
2023-03-14T07:40:32.359Z,1761.00
2023-03-14T07:41:32.356Z,1801.00
2023-03-14T07:42:32.342Z,1816.00
2023-03-14T07:43:32.334Z,1829.00
2023-03-14T07:44:33.289Z,1859.00
2023-03-14T07:45:32.308Z,1900.00
2023-03-14T07:46:32.476Z,1934.00
2023-03-14T07:47:32.316Z,1979.00
2023-03-14T07:48:32.325Z,2007.00
2023-03-14T07:49:32.318Z,2032.00
2023-03-14T07:50:32.314Z,2034.00
2023-03-14T07:51:32.330Z,2042.00
2023-03-14T07:52:32.275Z,2061.00
2023-03-14T07:53:32.266Z,2121.00
2023-03-14T07:54:32.245Z,2200.00
2023-03-14T07:55:32.231Z,2264.00
2023-03-14T07:56:32.207Z,2268.00
2023-03-14T07:57:32.190Z,2304.00
2023-03-14T07:58:32.157Z,2329.00
2023-03-14T07:59:32.138Z,2340.00
2023-03-14T08:00:32.117Z,2361.00
2023-03-14T08:01:32.833Z,2377.00
2023-03-14T08:02:32.175Z,2409.00
2023-03-14T08:03:32.087Z,2426.00
2023-03-14T08:04:32.046Z,2475.00
2023-03-14T08:05:32.027Z,2515.00
2023-03-14T08:06:32.871Z,2545.00
2023-03-14T08:07:31.964Z,2581.00
2023-03-14T08:08:31.949Z,2594.00
2023-03-14T08:09:31.926Z,2612.00
2023-03-14T08:10:31.903Z,2624.00
2023-03-14T08:11:31.886Z,2668.00
2023-03-14T08:12:31.860Z,2699.00
2023-03-14T08:13:31.840Z,2714.00
2023-03-14T08:14:31.804Z,2723.00
2023-03-14T08:15:31.770Z,2737.00
2023-03-14T08:16:31.844Z,2763.00
2023-03-14T08:17:31.723Z,2807.00
2023-03-14T08:18:31.714Z,2807.00
2023-03-14T08:19:31.680Z,2794.00
2023-03-14T08:20:31.643Z,2704.00
2023-03-14T08:21:31.627Z,2747.00
2023-03-14T08:22:32.378Z,2742.00
2023-03-14T08:23:31.601Z,2737.00
2023-03-14T08:24:31.598Z,2731.00
2023-03-14T08:25:31.703Z,2712.00
2023-03-14T08:26:31.576Z,2703.00
2023-03-14T08:27:31.583Z,2679.00
2023-03-14T08:28:31.571Z,2699.00
2023-03-14T08:29:31.541Z,2672.00
2023-03-14T08:30:31.559Z,2655.00
2023-03-14T08:31:31.585Z,2649.00
2023-03-14T08:32:31.523Z,2639.00
2023-03-14T08:33:31.489Z,2635.00
2023-03-14T08:34:31.476Z,2608.00
2023-03-14T08:35:31.466Z,2612.00
2023-03-14T08:36:31.486Z,2592.00
2023-03-14T08:37:31.455Z,2595.00
2023-03-14T08:38:31.454Z,2574.00
2023-03-14T08:39:31.440Z,2563.00
2023-03-14T08:40:31.439Z,2563.00
2023-03-14T08:41:31.429Z,2559.00
2023-03-14T08:42:31.428Z,2546.00
2023-03-14T08:43:31.421Z,2537.00
2023-03-14T08:44:31.449Z,2525.00
2023-03-14T08:45:31.408Z,2512.00
2023-03-14T08:46:31.434Z,2512.00
2023-03-14T08:47:31.444Z,2513.00
2023-03-14T08:48:31.482Z,2517.00
2023-03-14T08:49:31.417Z,2496.00
2023-03-14T08:50:31.402Z,2509.00
2023-03-14T08:51:31.399Z,2506.00
2023-03-14T08:52:31.424Z,2496.00
2023-03-14T08:53:31.408Z,2499.00
2023-03-14T08:54:31.401Z,2486.00
2023-03-14T08:55:31.392Z,2480.00
2023-03-14T08:56:31.407Z,2476.00
2023-03-14T08:57:31.395Z,2460.00
2023-03-14T08:58:31.402Z,2442.00
2023-03-14T08:59:31.416Z,2454.00
2023-03-14T09:00:31.411Z,2457.00
2023-03-14T09:01:31.449Z,2445.00
2023-03-14T09:02:31.416Z,2427.00
2023-03-14T09:03:31.419Z,2430.00
2023-03-14T09:04:31.481Z,2426.00
2023-03-14T09:05:31.447Z,2425.00
2023-03-14T09:06:31.447Z,2415.00
2023-03-14T09:07:31.446Z,2402.00
2023-03-14T09:08:31.441Z,2402.00
2023-03-14T09:09:31.457Z,2386.00
2023-03-14T09:10:31.455Z,2381.00
2023-03-14T09:11:31.448Z,2366.00
2023-03-14T09:12:31.444Z,2245.00
2023-03-14T09:13:31.448Z,1920.00
2023-03-14T09:14:31.488Z,1559.00
2023-03-14T09:15:31.507Z,1279.00
2023-03-14T09:16:31.560Z,1226.00
2023-03-14T09:17:31.537Z,1072.00
2023-03-14T09:18:31.557Z,823.00
2023-03-14T09:19:31.575Z,716.00
2023-03-14T09:20:31.623Z,614.00
2023-03-14T09:21:32.317Z,559.00
2023-03-14T09:22:31.732Z,542.00
2023-03-14T09:23:31.787Z,506.00
2023-03-14T09:24:31.858Z,501.00
2023-03-14T09:25:31.924Z,597.00
2023-03-14T09:26:31.994Z,620.00
2023-03-14T09:27:32.071Z,608.00
2023-03-14T09:28:32.137Z,565.00
2023-03-14T09:29:32.831Z,513.00
2023-03-14T09:30:32.167Z,505.00
2023-03-14T09:31:32.217Z,499.00
2023-03-14T09:32:32.191Z,507.00
2023-03-14T09:33:32.193Z,536.00
2023-03-14T09:34:32.198Z,550.00
2023-03-14T09:35:32.206Z,533.00
2023-03-14T09:36:32.180Z,502.00
2023-03-14T09:37:32.167Z,518.00
2023-03-14T09:38:32.177Z,547.00
2023-03-14T09:39:32.168Z,530.00
2023-03-14T09:40:32.193Z,570.00
2023-03-14T09:41:32.274Z,579.00
2023-03-14T09:42:32.307Z,569.00
2023-03-14T09:43:32.364Z,576.00
2023-03-14T09:44:32.411Z,633.00
2023-03-14T09:45:32.473Z,612.00
2023-03-14T09:46:32.587Z,613.00
2023-03-14T09:47:32.540Z,686.00
2023-03-14T09:48:32.592Z,633.00
2023-03-14T09:49:32.626Z,567.00
2023-03-14T09:50:32.661Z,524.00
2023-03-14T09:51:32.699Z,516.00
2023-03-14T09:52:32.735Z,502.00
2023-03-14T09:53:32.787Z,611.00
2023-03-14T09:54:32.829Z,658.00
2023-03-14T09:55:34.294Z,613.00
2023-03-14T09:56:33.024Z,530.00
2023-03-14T09:57:33.053Z,551.00
2023-03-14T09:58:33.086Z,608.00
2023-03-14T09:59:33.819Z,582.00
2023-03-14T10:00:33.188Z,632.00
2023-03-14T10:01:33.402Z,629.00
2023-03-14T10:02:33.241Z,553.00
2023-03-14T10:03:33.279Z,485.00
2023-03-14T10:04:33.363Z,482.00
2023-03-14T10:05:33.373Z,562.00
2023-03-14T10:06:33.412Z,548.00
2023-03-14T10:07:33.461Z,524.00
2023-03-14T10:08:33.513Z,579.00
2023-03-14T10:09:33.559Z,635.00
2023-03-14T10:10:33.642Z,697.00
2023-03-14T10:11:33.695Z,733.00
2023-03-14T10:12:33.709Z,824.00
2023-03-14T10:13:33.734Z,663.00
2023-03-14T10:14:33.763Z,648.00
2023-03-14T10:15:33.813Z,747.00
2023-03-14T10:16:33.891Z,720.00
2023-03-14T10:17:33.855Z,853.00
2023-03-14T10:18:33.883Z,880.00
2023-03-14T10:19:33.903Z,915.00
2023-03-14T10:20:33.930Z,927.00
2023-03-14T10:21:33.932Z,919.00
2023-03-14T10:22:33.965Z,948.00
2023-03-14T10:23:33.948Z,963.00
2023-03-14T10:24:33.973Z,987.00
2023-03-14T10:25:33.965Z,974.00
2023-03-14T10:26:33.956Z,1022.00
2023-03-14T10:27:33.993Z,1033.00
2023-03-14T10:28:34.836Z,1058.00
2023-03-14T10:29:33.973Z,1072.00
2023-03-14T10:30:34.039Z,1080.00
2023-03-14T10:31:33.969Z,1097.00
2023-03-14T10:32:34.008Z,1095.00
2023-03-14T10:33:33.976Z,1111.00
2023-03-14T10:34:34.053Z,1125.00
2023-03-14T10:35:34.028Z,1129.00
2023-03-14T10:36:33.991Z,1125.00
2023-03-14T10:37:33.963Z,1141.00
2023-03-14T10:38:34.939Z,1138.00
2023-03-14T10:39:33.967Z,1146.00
2023-03-14T10:40:33.984Z,1163.00
2023-03-14T10:41:33.959Z,1168.00
2023-03-14T10:42:33.966Z,1162.00
2023-03-14T10:43:33.967Z,1189.00
2023-03-14T10:44:33.975Z,1186.00
2023-03-14T10:45:33.980Z,1184.00
2023-03-14T10:46:34.009Z,1177.00
2023-03-14T10:47:33.969Z,1183.00
2023-03-14T10:48:33.972Z,1199.00
2023-03-14T10:49:34.029Z,1190.00
2023-03-14T10:50:33.980Z,1201.00
2023-03-14T10:51:33.979Z,1202.00
2023-03-14T10:52:57.373Z,1209.00
2023-03-14T10:53:34.955Z,1210.00
2023-03-14T10:54:33.927Z,1212.00
2023-03-14T10:55:33.902Z,1216.00
2023-03-14T10:56:33.880Z,1221.00
2023-03-14T10:57:33.871Z,1225.00
2023-03-14T10:58:33.884Z,1218.00
2023-03-14T10:59:33.835Z,1226.00
2023-03-14T11:00:33.813Z,1234.00
2023-03-14T11:01:33.838Z,1234.00
2023-03-14T11:02:33.767Z,1224.00
2023-03-14T11:03:33.737Z,1240.00
2023-03-14T11:04:33.796Z,1236.00
2023-03-14T11:05:33.682Z,1242.00
2023-03-14T11:06:33.803Z,1232.00
2023-03-14T11:07:33.641Z,1237.00
2023-03-14T11:08:33.656Z,1231.00
2023-03-14T11:09:33.608Z,1240.00
2023-03-14T11:10:33.571Z,1231.00
2023-03-14T11:11:33.550Z,1239.00
2023-03-14T11:12:33.530Z,1226.00
2023-03-14T11:13:34.443Z,1242.00
2023-03-14T11:14:33.490Z,1240.00
2023-03-14T11:15:33.494Z,1252.00
2023-03-14T11:16:33.461Z,1237.00
2023-03-14T11:17:33.459Z,1252.00
2023-03-14T11:18:33.432Z,1251.00
2023-03-14T11:19:34.492Z,1238.00
2023-03-14T11:20:33.435Z,1235.00
2023-03-14T11:21:33.445Z,1232.00
2023-03-14T11:22:33.441Z,1245.00
2023-03-14T11:23:33.447Z,1240.00
2023-03-14T11:24:33.449Z,1231.00
2023-03-14T11:25:33.463Z,1237.00
2023-03-14T11:26:33.461Z,1247.00
2023-03-14T11:27:33.463Z,1245.00
2023-03-14T11:28:33.471Z,1252.00
2023-03-14T11:29:33.474Z,1234.00
2023-03-14T11:30:33.474Z,1228.00
2023-03-14T11:31:33.559Z,1238.00
2023-03-14T11:32:33.507Z,1223.00
2023-03-14T11:33:33.486Z,1247.00
2023-03-14T11:34:33.494Z,1237.00
2023-03-14T11:35:33.525Z,1243.00
2023-03-14T11:36:33.966Z,1249.00
2023-03-14T11:37:33.522Z,1235.00
2023-03-14T11:38:33.519Z,1234.00
2023-03-14T11:39:33.546Z,1223.00
2023-03-14T11:40:33.529Z,1208.00
2023-03-14T11:41:33.543Z,1211.00
2023-03-14T11:42:33.548Z,1234.00
2023-03-14T11:43:33.553Z,1236.00
2023-03-14T11:44:33.565Z,1219.00
2023-03-14T11:45:33.570Z,1216.00
2023-03-14T11:46:33.626Z,1232.00
2023-03-14T11:47:33.587Z,1196.00
2023-03-14T11:48:33.596Z,1202.00
2023-03-14T11:49:33.593Z,1202.00
2023-03-14T11:50:33.593Z,1208.00
2023-03-14T11:51:34.115Z,1220.00
2023-03-14T11:52:33.612Z,1209.00
2023-03-14T11:53:33.593Z,1215.00
2023-03-14T11:54:33.941Z,1207.00
2023-03-14T11:55:33.630Z,1208.00
2023-03-14T11:56:33.630Z,1209.00
2023-03-14T11:57:33.908Z,1206.00
2023-03-14T11:58:33.620Z,1204.00
2023-03-14T11:59:33.625Z,1193.00
2023-03-14T12:00:33.789Z,1191.00
2023-03-14T12:01:33.662Z,1200.00
2023-03-14T12:02:33.627Z,1188.00
2023-03-14T12:03:33.859Z,1191.00
2023-03-14T12:04:33.630Z,1200.00
2023-03-14T12:05:33.654Z,1200.00
2023-03-14T12:06:33.661Z,1191.00
2023-03-14T12:07:33.633Z,1215.00
2023-03-14T12:08:33.627Z,1189.00
2023-03-14T12:09:33.636Z,1182.00
2023-03-14T12:10:33.621Z,1188.00
2023-03-14T12:11:33.626Z,1204.00
2023-03-14T12:12:33.626Z,1202.00
2023-03-14T12:13:33.621Z,1186.00
2023-03-14T12:14:33.653Z,1199.00
2023-03-14T12:15:33.636Z,1195.00
2023-03-14T12:16:33.691Z,1182.00
2023-03-14T12:17:33.654Z,1193.00
2023-03-14T12:18:33.660Z,1199.00
2023-03-14T12:19:33.663Z,1208.00
2023-03-14T12:20:33.672Z,1193.00
2023-03-14T12:21:33.668Z,1214.00
2023-03-14T12:22:33.675Z,1215.00
2023-03-14T12:23:33.682Z,1203.00
2023-03-14T12:24:33.690Z,1204.00
2023-03-14T12:25:33.705Z,1189.00
2023-03-14T12:26:33.708Z,1194.00
2023-03-14T12:27:33.713Z,1207.00
2023-03-14T12:28:33.724Z,1193.00
2023-03-14T12:29:33.734Z,1194.00
2023-03-14T12:30:33.757Z,1201.00
2023-03-14T12:31:33.787Z,1205.00
2023-03-14T12:32:33.804Z,1198.00
2023-03-14T12:33:33.825Z,1210.00
2023-03-14T12:34:33.786Z,1206.00
2023-03-14T12:35:33.813Z,1202.00
2023-03-14T12:36:33.791Z,1203.00
2023-03-14T12:37:33.799Z,1278.00
2023-03-14T12:38:33.807Z,1301.00
2023-03-14T12:39:33.814Z,1328.00
2023-03-14T12:40:33.966Z,1354.00
2023-03-14T12:41:33.837Z,1351.00
2023-03-14T12:42:44.581Z,1384.00
2023-03-14T12:43:35.012Z,1386.00
2023-03-14T12:44:33.822Z,1390.00
2023-03-14T12:45:33.848Z,1407.00
2023-03-14T12:46:33.841Z,1417.00
2023-03-14T12:47:33.782Z,1481.00
2023-03-14T12:48:33.765Z,1542.00
2023-03-14T12:49:33.762Z,1551.00
2023-03-14T12:50:33.755Z,1552.00
2023-03-14T12:51:33.739Z,1562.00
2023-03-14T12:52:33.732Z,1546.00
2023-03-14T12:53:33.713Z,1569.00
2023-03-14T12:54:33.918Z,1561.00
2023-03-14T12:55:33.687Z,1562.00
2023-03-14T12:56:33.678Z,1559.00
2023-03-14T12:57:33.681Z,1556.00
2023-03-14T12:58:33.671Z,1554.00
2023-03-14T12:59:33.633Z,1555.00
2023-03-14T13:00:33.614Z,1532.00
2023-03-14T13:01:33.661Z,1539.00
2023-03-14T13:02:33.569Z,1521.00
2023-03-14T13:03:33.568Z,1527.00
2023-03-14T13:04:39.704Z,1526.00
2023-03-14T13:05:33.521Z,1527.00
2023-03-14T13:06:33.510Z,1527.00
2023-03-14T13:07:33.503Z,1521.00
2023-03-14T13:08:33.545Z,1517.00
2023-03-14T13:09:33.473Z,1502.00
2023-03-14T13:10:38.222Z,1515.00
2023-03-14T13:11:34.954Z,1516.00
2023-03-14T13:12:33.432Z,1500.00
2023-03-14T13:14:33.426Z,1489.00
2023-03-14T13:15:33.388Z,1485.00
2023-03-14T13:16:33.401Z,1491.00
2023-03-14T13:17:36.921Z,1481.00
2023-03-14T13:18:33.324Z,1482.00
2023-03-14T13:19:33.306Z,1483.00
2023-03-14T13:20:33.309Z,1482.00
2023-03-14T13:21:33.281Z,1469.00
2023-03-14T13:22:33.253Z,1480.00
2023-03-14T13:23:33.235Z,1475.00
2023-03-14T13:24:33.229Z,1473.00
2023-03-14T13:25:33.199Z,1467.00
2023-03-14T13:26:33.194Z,1477.00
2023-03-14T13:27:33.177Z,1467.00
2023-03-14T13:28:33.154Z,1464.00
2023-03-14T13:29:33.142Z,1474.00
2023-03-14T13:30:33.241Z,1456.00
2023-03-14T13:31:33.123Z,1456.00
2023-03-14T13:32:33.273Z,1456.00
2023-03-14T13:33:35.294Z,1460.00
2023-03-14T13:34:33.353Z,1458.00
2023-03-14T13:35:33.081Z,1463.00
2023-03-14T13:36:33.003Z,1458.00
2023-03-14T13:37:32.990Z,1443.00
2023-03-14T13:38:33.990Z,1444.00
2023-03-14T13:39:32.973Z,1446.00
2023-03-14T13:40:32.967Z,1452.00
2023-03-14T13:41:32.918Z,1456.00
2023-03-14T13:42:32.906Z,1465.00
2023-03-14T14:12:32.781Z,1440.00
2023-03-14T14:23:32.903Z,1460.00
2023-03-14T14:31:33.070Z,1435.00
2023-03-14T14:32:33.043Z,1448.00
2023-03-14T14:33:33.023Z,1466.00
2023-03-14T14:35:33.123Z,1448.00
2023-03-14T14:36:33.074Z,1430.00
2023-03-14T14:41:33.132Z,1422.00
2023-03-14T14:42:33.132Z,1436.00
2023-03-14T14:43:33.149Z,1426.00
2023-03-14T14:44:33.919Z,1435.00
2023-03-14T14:45:33.178Z,1423.00
2023-03-14T14:46:33.228Z,1413.00
2023-03-14T14:47:33.217Z,1430.00
2023-03-14T14:48:33.226Z,1406.00
2023-03-14T14:49:33.288Z,1401.00
2023-03-14T14:51:33.213Z,1407.00
2023-03-14T14:52:33.197Z,1409.00
2023-03-14T14:53:33.194Z,1412.00
2023-03-14T14:54:33.168Z,1416.00
2023-03-14T14:55:33.154Z,1421.00
2023-03-14T14:56:33.139Z,1427.00
2023-03-14T14:57:34.131Z,1428.00
2023-03-14T14:58:33.109Z,1428.00
2023-03-14T14:59:33.072Z,1423.00
2023-03-14T15:00:34.424Z,1433.00
2023-03-14T15:01:33.126Z,1435.00
2023-03-14T15:02:33.076Z,1429.00
2023-03-14T15:03:33.011Z,1416.00
2023-03-14T15:04:33.031Z,1404.00
2023-03-14T15:05:32.960Z,1415.00
2023-03-14T15:06:33.021Z,1409.00
2023-03-14T15:07:32.920Z,1396.00
2023-03-14T15:08:32.893Z,1387.00
2023-03-14T15:09:32.884Z,1395.00
2023-03-14T15:10:32.960Z,1388.00
2023-03-14T15:11:32.855Z,1386.00
2023-03-14T15:12:32.848Z,1382.00
2023-03-14T15:13:32.828Z,1383.00
2023-03-14T15:14:32.803Z,1391.00
2023-03-14T15:15:32.790Z,1380.00
2023-03-14T15:16:32.822Z,1388.00
2023-03-14T15:17:32.774Z,1397.00
2023-03-14T15:18:32.898Z,1389.00
2023-03-14T15:19:33.515Z,1398.00
2023-03-14T15:20:32.813Z,1382.00
2023-03-14T15:21:32.827Z,1388.00
2023-03-14T15:22:32.841Z,1398.00
2023-03-14T15:23:32.855Z,1383.00
2023-03-14T15:24:32.884Z,1393.00
2023-03-14T15:25:53.323Z,1391.00
2023-03-14T15:26:33.868Z,1392.00
2023-03-14T15:27:32.837Z,1390.00
2023-03-14T15:28:32.820Z,1393.00
2023-03-14T15:29:32.811Z,1379.00
2023-03-14T15:30:32.798Z,1383.00
2023-03-14T15:31:32.791Z,1374.00
2023-03-14T15:32:32.800Z,1393.00
2023-03-14T15:33:32.754Z,1357.00
2023-03-14T15:34:32.714Z,1378.00
2023-03-14T15:35:32.706Z,1378.00
2023-03-14T15:36:32.693Z,1368.00
2023-03-14T15:37:32.665Z,1369.00
2023-03-14T15:38:32.651Z,1389.00
2023-03-14T15:39:32.649Z,1375.00
2023-03-14T15:40:32.628Z,1372.00
2023-03-14T15:41:32.624Z,1348.00
2023-03-14T15:42:32.605Z,1349.00
2023-03-14T15:43:32.647Z,1357.00
2023-03-14T15:44:32.559Z,1356.00
2023-03-14T15:45:32.605Z,1334.00
2023-03-14T15:46:33.525Z,1334.00
2023-03-14T15:47:32.592Z,1328.00
2023-03-14T15:48:32.604Z,1328.00
2023-03-14T15:49:32.617Z,1328.00
2023-03-14T15:50:32.640Z,1314.00
2023-03-14T15:51:32.651Z,1317.00
2023-03-14T15:52:32.671Z,1309.00
2023-03-14T15:53:32.668Z,1298.00
2023-03-14T15:54:32.709Z,1298.00
2023-03-14T15:55:32.711Z,1298.00
2023-03-14T15:56:32.711Z,1284.00
2023-03-14T15:57:32.725Z,1284.00
2023-03-14T15:58:32.741Z,1267.00
2023-03-14T15:59:32.769Z,1280.00
2023-03-14T16:00:32.783Z,1260.00
2023-03-14T16:01:32.840Z,1253.00
2023-03-14T16:02:32.823Z,1266.00
2023-03-14T16:03:32.847Z,1249.00
2023-03-14T16:04:32.886Z,1274.00
2023-03-14T16:05:32.890Z,1267.00
2023-03-14T16:06:32.915Z,1265.00
2023-03-14T16:07:33.586Z,1241.00
2023-03-14T16:08:32.956Z,1257.00
2023-03-14T16:09:32.990Z,1259.00
2023-03-14T16:10:33.005Z,1266.00
2023-03-14T16:11:33.068Z,1264.00
2023-03-14T16:12:33.083Z,1238.00
2023-03-14T16:13:33.069Z,1248.00
2023-03-14T16:14:33.100Z,1248.00
2023-03-14T16:15:33.126Z,1246.00
2023-03-14T16:16:33.210Z,1257.00
2023-03-14T16:17:33.158Z,1253.00
2023-03-14T16:18:33.185Z,1250.00
2023-03-14T16:19:33.215Z,1249.00
2023-03-14T16:20:45.566Z,1234.00
2023-03-14T16:21:34.221Z,1235.00
2023-03-14T16:22:33.200Z,1237.00
2023-03-14T16:23:33.183Z,1241.00
2023-03-14T16:24:33.177Z,1240.00
2023-03-14T16:25:33.162Z,1252.00
2023-03-14T16:26:33.243Z,1247.00
2023-03-14T16:27:33.141Z,1249.00
2023-03-14T16:28:33.126Z,1248.00
2023-03-14T16:29:33.121Z,1235.00
2023-03-14T16:30:33.108Z,1242.00
2023-03-14T16:31:33.554Z,1242.00
2023-03-14T16:32:34.168Z,1230.00
2023-03-14T16:33:33.075Z,1242.00
2023-03-14T16:34:33.051Z,1241.00
2023-03-14T16:35:33.029Z,1248.00
2023-03-14T16:36:33.018Z,1243.00
2023-03-14T16:37:33.042Z,1238.00
2023-03-14T16:38:34.058Z,1241.00
2023-03-14T16:39:33.100Z,1223.00
2023-03-14T16:40:33.118Z,1217.00
2023-03-14T16:41:33.190Z,1241.00
2023-03-14T16:42:33.307Z,1204.00
2023-03-14T16:43:33.212Z,1203.00
2023-03-14T16:44:33.243Z,1199.00
2023-03-14T16:45:33.282Z,1203.00
2023-03-14T16:46:33.374Z,1207.00
2023-03-14T16:47:33.328Z,1214.00
2023-03-14T16:48:33.371Z,1209.00
2023-03-14T16:49:33.385Z,1215.00
2023-03-14T16:50:33.417Z,1216.00
2023-03-14T16:51:33.466Z,1204.00
2023-03-14T16:52:33.491Z,1188.00
2023-03-14T16:53:33.533Z,1204.00
2023-03-14T16:54:33.565Z,1201.00
2023-03-14T16:55:33.582Z,1190.00
2023-03-14T16:56:33.612Z,1188.00
2023-03-14T16:57:33.644Z,1178.00
2023-03-14T16:58:33.680Z,1182.00
2023-03-14T16:59:33.712Z,1191.00
2023-03-14T17:00:33.761Z,1191.00
2023-03-14T17:01:33.808Z,1180.00
2023-03-14T17:02:33.844Z,1186.00
2023-03-14T17:03:33.881Z,1181.00
2023-03-14T17:04:33.915Z,1177.00
2023-03-14T19:40:40.630Z,1123.00
2023-03-14T19:41:40.665Z,1115.00
2023-03-14T19:42:40.708Z,1124.00
2023-03-14T19:43:40.762Z,1120.00